sensor_id;sensor_type;location;lat;lon;timestamp;P1;durP1;ratioP1;P2;durP2;ratioP2
40867;SDS011;26586;50.708;22.412;2023-04-28T00:01:10;8.77;;;1.38;;
40867;SDS011;26586;50.708;22.412;2023-04-28T00:03:36;5.80;;;1.47;;
40867;SDS011;26586;50.708;22.412;2023-04-28T00:06:03;0.30;;;0.30;;
40867;SDS011;26586;50.708;22.412;2023-04-28T00:08:29;0.63;;;0.63;;
40867;SDS011;26586;50.708;22.412;2023-04-28T00:10:55;11.43;;;1.17;;
40867;SDS011;26586;50.708;22.412;2023-04-28T00:13:21;1.13;;;1.03;;
40867;SDS011;26586;50.708;22.412;2023-04-28T00:15:48;0.40;;;0.40;;
40867;SDS011;26586;50.708;22.412;2023-04-28T00:18:17;2.65;;;1.27;;
40867;SDS011;26586;50.708;22.412;2023-04-28T00:20:44;0.77;;;0.77;;
40867;SDS011;26586;50.708;22.412;2023-04-28T00:23:10;0.10;;;0.10;;
40867;SDS011;26586;50.708;22.412;2023-04-28T00:25:36;0.47;;;0.33;;
40867;SDS011;26586;50.708;22.412;2023-04-28T00:28:03;1.00;;;0.75;;
40867;SDS011;26586;50.708;22.412;2023-04-28T00:30:29;0.10;;;0.03;;
40867;SDS011;26586;50.708;22.412;2023-04-28T00:32:55;0.60;;;0.60;;
40867;SDS011;26586;50.708;22.412;2023-04-28T00:35:22;0.80;;;0.60;;
40867;SDS011;26586;50.708;22.412;2023-04-28T00:37:48;3.15;;;0.65;;
40867;SDS011;26586;50.708;22.412;2023-04-28T00:40:14;0.70;;;0.60;;
40867;SDS011;26586;50.708;22.412;2023-04-28T00:42:40;0.17;;;0.17;;
40867;SDS011;26586;50.708;22.412;2023-04-28T00:45:07;1.93;;;1.57;;
40867;SDS011;26586;50.708;22.412;2023-04-28T00:47:33;0.35;;;0.35;;
40867;SDS011;26586;50.708;22.412;2023-04-28T00:50:01;0.35;;;0.35;;
40867;SDS011;26586;50.708;22.412;2023-04-28T00:52:30;0.85;;;0.85;;
40867;SDS011;26586;50.708;22.412;2023-04-28T00:54:56;0.82;;;0.82;;
40867;SDS011;26586;50.708;22.412;2023-04-28T00:57:23;1.10;;;1.08;;
40867;SDS011;26586;50.708;22.412;2023-04-28T00:59:49;1.63;;;1.00;;
40867;SDS011;26586;50.708;22.412;2023-04-28T01:02:15;0.35;;;0.35;;
40867;SDS011;26586;50.708;22.412;2023-04-28T01:04:43;0.30;;;0.20;;
40867;SDS011;26586;50.708;22.412;2023-04-28T01:07:10;1.83;;;1.15;;
40867;SDS011;26586;50.708;22.412;2023-04-28T01:09:36;2.58;;;1.17;;
40867;SDS011;26586;50.708;22.412;2023-04-28T01:12:02;1.25;;;0.90;;
40867;SDS011;26586;50.708;22.412;2023-04-28T01:14:29;0.25;;;0.25;;
40867;SDS011;26586;50.708;22.412;2023-04-28T01:16:56;0.95;;;0.55;;
40867;SDS011;26586;50.708;22.412;2023-04-28T01:19:23;0.73;;;0.70;;
40867;SDS011;26586;50.708;22.412;2023-04-28T01:21:49;0.82;;;0.82;;
40867;SDS011;26586;50.708;22.412;2023-04-28T01:24:16;0.85;;;0.40;;
40867;SDS011;26586;50.708;22.412;2023-04-28T01:26:42;0.63;;;0.63;;
40867;SDS011;26586;50.708;22.412;2023-04-28T01:29:10;0.80;;;0.80;;
40867;SDS011;26586;50.708;22.412;2023-04-28T01:31:36;0.93;;;0.63;;
40867;SDS011;26586;50.708;22.412;2023-04-28T01:34:02;1.70;;;1.23;;
40867;SDS011;26586;50.708;22.412;2023-04-28T01:36:29;1.07;;;0.77;;
40867;SDS011;26586;50.708;22.412;2023-04-28T01:38:55;0.00;;;0.00;;
40867;SDS011;26586;50.708;22.412;2023-04-28T01:41:21;0.22;;;0.22;;
40867;SDS011;26586;50.708;22.412;2023-04-28T01:43:47;0.53;;;0.37;;
40867;SDS011;26586;50.708;22.412;2023-04-28T01:46:13;0.20;;;0.20;;
40867;SDS011;26586;50.708;22.412;2023-04-28T01:48:40;0.22;;;0.22;;
40867;SDS011;26586;50.708;22.412;2023-04-28T01:51:06;0.50;;;0.50;;
40867;SDS011;26586;50.708;22.412;2023-04-28T01:53:32;0.60;;;0.60;;
40867;SDS011;26586;50.708;22.412;2023-04-28T01:55:58;0.25;;;0.25;;
40867;SDS011;26586;50.708;22.412;2023-04-28T01:58:25;0.38;;;0.38;;
40867;SDS011;26586;50.708;22.412;2023-04-28T02:00:51;0.20;;;0.20;;
40867;SDS011;26586;50.708;22.412;2023-04-28T02:03:17;1.53;;;0.60;;
40867;SDS011;26586;50.708;22.412;2023-04-28T02:05:43;0.65;;;0.52;;
40867;SDS011;26586;50.708;22.412;2023-04-28T02:08:10;0.55;;;0.52;;
40867;SDS011;26586;50.708;22.412;2023-04-28T02:10:36;0.50;;;0.40;;
40867;SDS011;26586;50.708;22.412;2023-04-28T02:13:02;0.83;;;0.80;;
40867;SDS011;26586;50.708;22.412;2023-04-28T02:15:28;0.20;;;0.20;;
40867;SDS011;26586;50.708;22.412;2023-04-28T02:17:55;1.60;;;1.02;;
40867;SDS011;26586;50.708;22.412;2023-04-28T02:20:21;1.35;;;0.50;;
40867;SDS011;26586;50.708;22.412;2023-04-28T02:22:47;2.20;;;0.55;;
40867;SDS011;26586;50.708;22.412;2023-04-28T02:25:13;0.00;;;0.00;;
40867;SDS011;26586;50.708;22.412;2023-04-28T02:27:40;0.10;;;0.10;;
40867;SDS011;26586;50.708;22.412;2023-04-28T02:30:07;0.25;;;0.10;;
40867;SDS011;26586;50.708;22.412;2023-04-28T02:32:33;0.75;;;0.75;;
40867;SDS011;26586;50.708;22.412;2023-04-28T02:34:59;2.90;;;0.52;;
40867;SDS011;26586;50.708;22.412;2023-04-28T02:37:25;0.50;;;0.30;;
40867;SDS011;26586;50.708;22.412;2023-04-28T02:39:52;0.20;;;0.20;;
40867;SDS011;26586;50.708;22.412;2023-04-28T02:42:18;0.43;;;0.43;;
40867;SDS011;26586;50.708;22.412;2023-04-28T02:44:44;0.47;;;0.43;;
40867;SDS011;26586;50.708;22.412;2023-04-28T02:47:10;0.23;;;0.23;;
40867;SDS011;26586;50.708;22.412;2023-04-28T02:49:37;0.45;;;0.45;;
40867;SDS011;26586;50.708;22.412;2023-04-28T02:52:03;3.63;;;1.03;;
40867;SDS011;26586;50.708;22.412;2023-04-28T02:54:29;1.65;;;1.00;;
40867;SDS011;26586;50.708;22.412;2023-04-28T02:56:57;0.65;;;0.65;;
40867;SDS011;26586;50.708;22.412;2023-04-28T02:59:23;2.92;;;1.38;;
40867;SDS011;26586;50.708;22.412;2023-04-28T03:01:50;0.13;;;0.13;;
40867;SDS011;26586;50.708;22.412;2023-04-28T03:04:16;1.02;;;1.00;;
40867;SDS011;26586;50.708;22.412;2023-04-28T03:06:42;0.68;;;0.40;;
40867;SDS011;26586;50.708;22.412;2023-04-28T03:09:09;0.80;;;0.65;;
40867;SDS011;26586;50.708;22.412;2023-04-28T03:11:36;0.45;;;0.38;;
40867;SDS011;26586;50.708;22.412;2023-04-28T03:14:02;0.50;;;0.50;;
40867;SDS011;26586;50.708;22.412;2023-04-28T03:16:28;0.43;;;0.37;;
40867;SDS011;26586;50.708;22.412;2023-04-28T03:18:54;0.05;;;0.05;;
40867;SDS011;26586;50.708;22.412;2023-04-28T03:21:21;0.30;;;0.30;;
40867;SDS011;26586;50.708;22.412;2023-04-28T03:23:47;1.48;;;0.93;;
40867;SDS011;26586;50.708;22.412;2023-04-28T03:26:13;0.40;;;0.37;;
40867;SDS011;26586;50.708;22.412;2023-04-28T03:28:39;1.33;;;0.75;;
40867;SDS011;26586;50.708;22.412;2023-04-28T03:31:05;4.78;;;1.13;;
40867;SDS011;26586;50.708;22.412;2023-04-28T03:33:32;0.90;;;0.50;;
40867;SDS011;26586;50.708;22.412;2023-04-28T03:35:58;0.50;;;0.50;;
40867;SDS011;26586;50.708;22.412;2023-04-28T03:38:24;0.63;;;0.63;;
40867;SDS011;26586;50.708;22.412;2023-04-28T03:40:51;0.10;;;0.10;;
40867;SDS011;26586;50.708;22.412;2023-04-28T03:43:17;1.25;;;0.98;;
40867;SDS011;26586;50.708;22.412;2023-04-28T03:45:43;3.83;;;0.73;;
40867;SDS011;26586;50.708;22.412;2023-04-28T03:48:10;1.00;;;1.00;;
40867;SDS011;26586;50.708;22.412;2023-04-28T03:50:36;2.50;;;0.47;;
40867;SDS011;26586;50.708;22.412;2023-04-28T03:53:02;0.95;;;0.63;;
40867;SDS011;26586;50.708;22.412;2023-04-28T03:55:29;0.32;;;0.32;;
40867;SDS011;26586;50.708;22.412;2023-04-28T03:57:55;0.47;;;0.45;;
40867;SDS011;26586;50.708;22.412;2023-04-28T04:00:22;1.80;;;1.52;;
40867;SDS011;26586;50.708;22.412;2023-04-28T04:02:49;12.00;;;1.33;;
40867;SDS011;26586;50.708;22.412;2023-04-28T04:05:16;0.43;;;0.43;;
40867;SDS011;26586;50.708;22.412;2023-04-28T04:07:42;0.80;;;0.43;;
40867;SDS011;26586;50.708;22.412;2023-04-28T04:10:08;3.97;;;1.10;;
40867;SDS011;26586;50.708;22.412;2023-04-28T04:12:35;1.45;;;1.23;;
40867;SDS011;26586;50.708;22.412;2023-04-28T04:15:01;4.77;;;3.00;;
40867;SDS011;26586;50.708;22.412;2023-04-28T04:17:28;2.58;;;2.38;;
40867;SDS011;26586;50.708;22.412;2023-04-28T04:19:54;27.10;;;11.60;;
40867;SDS011;26586;50.708;22.412;2023-04-28T04:22:20;11.07;;;7.30;;
40867;SDS011;26586;50.708;22.412;2023-04-28T04:24:47;26.87;;;10.03;;
40867;SDS011;26586;50.708;22.412;2023-04-28T04:27:13;8.65;;;6.53;;
40867;SDS011;26586;50.708;22.412;2023-04-28T04:29:39;3.90;;;3.57;;
40867;SDS011;26586;50.708;22.412;2023-04-28T04:32:06;12.55;;;4.85;;
40867;SDS011;26586;50.708;22.412;2023-04-28T04:34:32;5.85;;;3.80;;
40867;SDS011;26586;50.708;22.412;2023-04-28T04:36:59;6.82;;;4.85;;
40867;SDS011;26586;50.708;22.412;2023-04-28T04:39:25;9.27;;;4.00;;
40867;SDS011;26586;50.708;22.412;2023-04-28T04:41:51;2.35;;;2.15;;
40867;SDS011;26586;50.708;22.412;2023-04-28T04:44:17;3.60;;;3.30;;
40867;SDS011;26586;50.708;22.412;2023-04-28T04:46:44;10.48;;;4.50;;
40867;SDS011;26586;50.708;22.412;2023-04-28T04:49:11;3.00;;;2.60;;
40867;SDS011;26586;50.708;22.412;2023-04-28T04:51:37;1.20;;;1.05;;
40867;SDS011;26586;50.708;22.412;2023-04-28T04:54:04;11.10;;;2.50;;
40867;SDS011;26586;50.708;22.412;2023-04-28T04:56:30;4.15;;;2.92;;
40867;SDS011;26586;50.708;22.412;2023-04-28T04:58:56;3.38;;;2.90;;
40867;SDS011;26586;50.708;22.412;2023-04-28T05:01:22;1.38;;;1.05;;
40867;SDS011;26586;50.708;22.412;2023-04-28T05:03:49;6.37;;;2.63;;
40867;SDS011;26586;50.708;22.412;2023-04-28T05:06:15;3.15;;;1.50;;
40867;SDS011;26586;50.708;22.412;2023-04-28T05:08:41;3.08;;;2.38;;
40867;SDS011;26586;50.708;22.412;2023-04-28T05:11:07;2.47;;;1.90;;
40867;SDS011;26586;50.708;22.412;2023-04-28T05:13:34;0.40;;;0.40;;
40867;SDS011;26586;50.708;22.412;2023-04-28T05:16:00;1.27;;;0.95;;
40867;SDS011;26586;50.708;22.412;2023-04-28T05:18:26;3.00;;;2.70;;
40867;SDS011;26586;50.708;22.412;2023-04-28T05:20:52;4.38;;;1.20;;
40867;SDS011;26586;50.708;22.412;2023-04-28T05:23:19;2.47;;;1.50;;
40867;SDS011;26586;50.708;22.412;2023-04-28T05:25:45;0.60;;;0.55;;
40867;SDS011;26586;50.708;22.412;2023-04-28T05:28:11;3.67;;;1.20;;
40867;SDS011;26586;50.708;22.412;2023-04-28T05:30:37;0.50;;;0.45;;
40867;SDS011;26586;50.708;22.412;2023-04-28T05:33:04;0.70;;;0.70;;
40867;SDS011;26586;50.708;22.412;2023-04-28T05:35:30;1.00;;;1.00;;
40867;SDS011;26586;50.708;22.412;2023-04-28T05:37:59;0.30;;;0.30;;
40867;SDS011;26586;50.708;22.412;2023-04-28T05:40:26;0.52;;;0.38;;
40867;SDS011;26586;50.708;22.412;2023-04-28T05:42:53;0.75;;;0.47;;
40867;SDS011;26586;50.708;22.412;2023-04-28T05:45:19;0.35;;;0.35;;
40867;SDS011;26586;50.708;22.412;2023-04-28T05:47:46;4.47;;;1.65;;
40867;SDS011;26586;50.708;22.412;2023-04-28T05:50:12;1.05;;;0.95;;
40867;SDS011;26586;50.708;22.412;2023-04-28T05:52:38;0.10;;;0.10;;
40867;SDS011;26586;50.708;22.412;2023-04-28T05:55:04;0.85;;;0.57;;
40867;SDS011;26586;50.708;22.412;2023-04-28T05:57:31;0.00;;;0.00;;
40867;SDS011;26586;50.708;22.412;2023-04-28T05:59:58;0.17;;;0.17;;
40867;SDS011;26586;50.708;22.412;2023-04-28T06:02:24;0.20;;;0.20;;
40867;SDS011;26586;50.708;22.412;2023-04-28T06:04:51;0.20;;;0.20;;
40867;SDS011;26586;50.708;22.412;2023-04-28T06:07:17;0.30;;;0.30;;
40867;SDS011;26586;50.708;22.412;2023-04-28T06:09:43;0.80;;;0.63;;
40867;SDS011;26586;50.708;22.412;2023-04-28T06:12:09;0.70;;;0.27;;
40867;SDS011;26586;50.708;22.412;2023-04-28T06:14:35;1.63;;;1.33;;
40867;SDS011;26586;50.708;22.412;2023-04-28T06:17:02;1.30;;;1.20;;
40867;SDS011;26586;50.708;22.412;2023-04-28T06:19:28;0.67;;;0.63;;
40867;SDS011;26586;50.708;22.412;2023-04-28T06:21:55;1.90;;;1.63;;
40867;SDS011;26586;50.708;22.412;2023-04-28T06:24:21;0.98;;;0.85;;
40867;SDS011;26586;50.708;22.412;2023-04-28T06:26:47;0.40;;;0.37;;
40867;SDS011;26586;50.708;22.412;2023-04-28T06:29:13;0.82;;;0.60;;
40867;SDS011;26586;50.708;22.412;2023-04-28T06:31:40;0.95;;;0.77;;
40867;SDS011;26586;50.708;22.412;2023-04-28T06:34:06;0.50;;;0.28;;
40867;SDS011;26586;50.708;22.412;2023-04-28T06:36:33;0.45;;;0.35;;
40867;SDS011;26586;50.708;22.412;2023-04-28T06:38:59;1.02;;;0.60;;
40867;SDS011;26586;50.708;22.412;2023-04-28T06:41:25;0.10;;;0.10;;
40867;SDS011;26586;50.708;22.412;2023-04-28T06:43:53;1.55;;;0.80;;
40867;SDS011;26586;50.708;22.412;2023-04-28T06:46:20;0.75;;;0.65;;
40867;SDS011;26586;50.708;22.412;2023-04-28T06:48:46;0.30;;;0.28;;
40867;SDS011;26586;50.708;22.412;2023-04-28T06:51:13;1.03;;;0.93;;
40867;SDS011;26586;50.708;22.412;2023-04-28T06:53:39;0.15;;;0.13;;
40867;SDS011;26586;50.708;22.412;2023-04-28T06:56:05;0.63;;;0.47;;
40867;SDS011;26586;50.708;22.412;2023-04-28T06:58:32;0.60;;;0.40;;
40867;SDS011;26586;50.708;22.412;2023-04-28T07:00:58;1.48;;;1.20;;
40867;SDS011;26586;50.708;22.412;2023-04-28T07:03:25;0.73;;;0.73;;
40867;SDS011;26586;50.708;22.412;2023-04-28T07:05:52;0.75;;;0.20;;
40867;SDS011;26586;50.708;22.412;2023-04-28T07:08:18;0.55;;;0.55;;
40867;SDS011;26586;50.708;22.412;2023-04-28T07:10:44;0.40;;;0.40;;
40867;SDS011;26586;50.708;22.412;2023-04-28T07:13:10;0.30;;;0.30;;
40867;SDS011;26586;50.708;22.412;2023-04-28T07:15:37;1.10;;;0.87;;
40867;SDS011;26586;50.708;22.412;2023-04-28T07:18:03;0.38;;;0.38;;
40867;SDS011;26586;50.708;22.412;2023-04-28T07:20:29;0.85;;;0.70;;
40867;SDS011;26586;50.708;22.412;2023-04-28T07:22:55;1.08;;;0.52;;
40867;SDS011;26586;50.708;22.412;2023-04-28T07:25:25;0.40;;;0.30;;
40867;SDS011;26586;50.708;22.412;2023-04-28T07:27:51;0.00;;;0.00;;
40867;SDS011;26586;50.708;22.412;2023-04-28T07:32:45;1.35;;;1.05;;
40867;SDS011;26586;50.708;22.412;2023-04-28T07:35:12;0.10;;;0.10;;
40867;SDS011;26586;50.708;22.412;2023-04-28T07:37:38;0.70;;;0.55;;
40867;SDS011;26586;50.708;22.412;2023-04-28T07:40:05;0.00;;;0.00;;
40867;SDS011;26586;50.708;22.412;2023-04-28T07:42:31;0.40;;;0.30;;
40867;SDS011;26586;50.708;22.412;2023-04-28T07:45:01;0.40;;;0.40;;
40867;SDS011;26586;50.708;22.412;2023-04-28T07:47:27;0.10;;;0.10;;
40867;SDS011;26586;50.708;22.412;2023-04-28T07:52:20;0.13;;;0.13;;
40867;SDS011;26586;50.708;22.412;2023-04-28T07:54:47;0.75;;;0.70;;
40867;SDS011;26586;50.708;22.412;2023-04-28T07:57:13;1.03;;;0.87;;
40867;SDS011;26586;50.708;22.412;2023-04-28T07:59:39;4.95;;;0.70;;
40867;SDS011;26586;50.708;22.412;2023-04-28T08:02:05;0.38;;;0.38;;
40867;SDS011;26586;50.708;22.412;2023-04-28T08:04:32;1.13;;;0.80;;
40867;SDS011;26586;50.708;22.412;2023-04-28T08:06:59;0.28;;;0.15;;
40867;SDS011;26586;50.708;22.412;2023-04-28T08:09:25;0.22;;;0.22;;
40867;SDS011;26586;50.708;22.412;2023-04-28T08:11:52;0.00;;;0.00;;
40867;SDS011;26586;50.708;22.412;2023-04-28T08:16:45;0.00;;;0.00;;
40867;SDS011;26586;50.708;22.412;2023-04-28T08:19:13;0.00;;;0.00;;
40867;SDS011;26586;50.708;22.412;2023-04-28T08:21:39;0.15;;;0.05;;
40867;SDS011;26586;50.708;22.412;2023-04-28T08:24:06;0.30;;;0.30;;
40867;SDS011;26586;50.708;22.412;2023-04-28T08:26:36;0.00;;;0.00;;
40867;SDS011;26586;50.708;22.412;2023-04-28T08:29:03;0.10;;;0.10;;
40867;SDS011;26586;50.708;22.412;2023-04-28T08:31:29;0.00;;;0.00;;
40867;SDS011;26586;50.708;22.412;2023-04-28T08:33:56;0.00;;;0.00;;
40867;SDS011;26586;50.708;22.412;2023-04-28T08:36:22;0.10;;;0.05;;
40867;SDS011;26586;50.708;22.412;2023-04-28T08:38:53;0.00;;;0.00;;
40867;SDS011;26586;50.708;22.412;2023-04-28T08:41:19;0.00;;;0.00;;
40867;SDS011;26586;50.708;22.412;2023-04-28T08:43:47;0.63;;;0.30;;
40867;SDS011;26586;50.708;22.412;2023-04-28T08:46:13;0.10;;;0.10;;
40867;SDS011;26586;50.708;22.412;2023-04-28T08:48:43;0.35;;;0.25;;
40867;SDS011;26586;50.708;22.412;2023-04-28T08:51:12;0.03;;;0.00;;
40867;SDS011;26586;50.708;22.412;2023-04-28T08:53:50;1.45;;;0.20;;
40867;SDS011;26586;50.708;22.412;2023-04-28T08:56:18;1.02;;;0.20;;
40867;SDS011;26586;50.708;22.412;2023-04-28T08:58:49;0.05;;;0.05;;
40867;SDS011;26586;50.708;22.412;2023-04-28T09:01:18;0.47;;;0.47;;
40867;SDS011;26586;50.708;22.412;2023-04-28T09:03:44;0.15;;;0.10;;
40867;SDS011;26586;50.708;22.412;2023-04-28T09:06:12;0.00;;;0.00;;
40867;SDS011;26586;50.708;22.412;2023-04-28T09:08:38;0.00;;;0.00;;
40867;SDS011;26586;50.708;22.412;2023-04-28T09:11:05;0.13;;;0.13;;
40867;SDS011;26586;50.708;22.412;2023-04-28T09:13:33;0.30;;;0.30;;
40867;SDS011;26586;50.708;22.412;2023-04-28T09:16:00;0.00;;;0.00;;
40867;SDS011;26586;50.708;22.412;2023-04-28T09:18:30;0.17;;;0.17;;
40867;SDS011;26586;50.708;22.412;2023-04-28T09:23:46;0.00;;;0.00;;
40867;SDS011;26586;50.708;22.412;2023-04-28T09:26:16;0.20;;;0.20;;
40867;SDS011;26586;50.708;22.412;2023-04-28T09:28:42;2.42;;;0.30;;
40867;SDS011;26586;50.708;22.412;2023-04-28T09:31:24;0.08;;;0.08;;
40867;SDS011;26586;50.708;22.412;2023-04-28T09:33:57;0.35;;;0.25;;
40867;SDS011;26586;50.708;22.412;2023-04-28T09:36:30;5.57;;;1.65;;
40867;SDS011;26586;50.708;22.412;2023-04-28T09:38:57;0.00;;;0.00;;
40867;SDS011;26586;50.708;22.412;2023-04-28T09:41:45;0.00;;;0.00;;
40867;SDS011;26586;50.708;22.412;2023-04-28T09:44:17;0.00;;;0.00;;
40867;SDS011;26586;50.708;22.412;2023-04-28T09:46:46;0.20;;;0.17;;
40867;SDS011;26586;50.708;22.412;2023-04-28T09:49:13;0.10;;;0.10;;
40867;SDS011;26586;50.708;22.412;2023-04-28T09:51:39;0.00;;;0.00;;
40867;SDS011;26586;50.708;22.412;2023-04-28T09:54:06;0.10;;;0.10;;
40867;SDS011;26586;50.708;22.412;2023-04-28T09:56:33;0.03;;;0.03;;
40867;SDS011;26586;50.708;22.412;2023-04-28T09:59:02;0.55;;;0.55;;
40867;SDS011;26586;50.708;22.412;2023-04-28T10:01:31;0.03;;;0.03;;
40867;SDS011;26586;50.708;22.412;2023-04-28T10:04:05;0.20;;;0.20;;
40867;SDS011;26586;50.708;22.412;2023-04-28T10:06:33;0.00;;;0.00;;
40867;SDS011;26586;50.708;22.412;2023-04-28T10:09:04;0.00;;;0.00;;
40867;SDS011;26586;50.708;22.412;2023-04-28T10:11:31;0.65;;;0.65;;
40867;SDS011;26586;50.708;22.412;2023-04-28T10:13:58;0.30;;;0.10;;
40867;SDS011;26586;50.708;22.412;2023-04-28T10:16:26;0.25;;;0.20;;
40867;SDS011;26586;50.708;22.412;2023-04-28T10:18:55;0.05;;;0.05;;
40867;SDS011;26586;50.708;22.412;2023-04-28T10:26:52;0.20;;;0.20;;
40867;SDS011;26586;50.708;22.412;2023-04-28T10:29:29;0.08;;;0.00;;
40867;SDS011;26586;50.708;22.412;2023-04-28T10:32:15;0.43;;;0.10;;
40867;SDS011;26586;50.708;22.412;2023-04-28T10:34:42;0.03;;;0.03;;
40867;SDS011;26586;50.708;22.412;2023-04-28T10:37:09;0.50;;;0.38;;
40867;SDS011;26586;50.708;22.412;2023-04-28T10:39:35;0.20;;;0.20;;
40867;SDS011;26586;50.708;22.412;2023-04-28T10:42:02;0.05;;;0.05;;
40867;SDS011;26586;50.708;22.412;2023-04-28T10:47:00;0.00;;;0.00;;
40867;SDS011;26586;50.708;22.412;2023-04-28T11:00:40;0.20;;;0.20;;
40867;SDS011;26586;50.708;22.412;2023-04-28T11:03:07;0.10;;;0.00;;
40867;SDS011;26586;50.708;22.412;2023-04-28T11:14:36;0.00;;;0.00;;
40867;SDS011;26586;50.708;22.412;2023-04-28T11:17:05;0.90;;;0.52;;
40867;SDS011;26586;50.708;22.412;2023-04-28T11:19:35;0.00;;;0.00;;
40867;SDS011;26586;50.708;22.412;2023-04-28T11:22:19;0.05;;;0.05;;
40867;SDS011;26586;50.708;22.412;2023-04-28T11:24:57;0.00;;;0.00;;
40867;SDS011;26586;50.708;22.412;2023-04-28T11:27:26;0.00;;;0.00;;
40867;SDS011;26586;50.708;22.412;2023-04-28T11:29:57;0.20;;;0.10;;
40867;SDS011;26586;50.708;22.412;2023-04-28T11:34:51;0.00;;;0.00;;
40867;SDS011;26586;50.708;22.412;2023-04-28T11:37:17;0.00;;;0.00;;
40867;SDS011;26586;50.708;22.412;2023-04-28T11:39:49;0.10;;;0.10;;
40867;SDS011;26586;50.708;22.412;2023-04-28T11:42:15;0.75;;;0.60;;
40867;SDS011;26586;50.708;22.412;2023-04-28T11:47:28;0.52;;;0.52;;
40867;SDS011;26586;50.708;22.412;2023-04-28T11:49:55;0.10;;;0.05;;
40867;SDS011;26586;50.708;22.412;2023-04-28T11:52:23;0.38;;;0.30;;
40867;SDS011;26586;50.708;22.412;2023-04-28T11:54:55;0.60;;;0.60;;
40867;SDS011;26586;50.708;22.412;2023-04-28T11:57:24;2.63;;;0.65;;
40867;SDS011;26586;50.708;22.412;2023-04-28T12:02:25;3.83;;;1.20;;
40867;SDS011;26586;50.708;22.412;2023-04-28T12:05:05;0.73;;;0.43;;
40867;SDS011;26586;50.708;22.412;2023-04-28T12:07:43;1.15;;;0.30;;
40867;SDS011;26586;50.708;22.412;2023-04-28T12:10:13;1.13;;;0.85;;
40867;SDS011;26586;50.708;22.412;2023-04-28T12:12:41;0.05;;;0.05;;
40867;SDS011;26586;50.708;22.412;2023-04-28T12:15:08;0.13;;;0.10;;
40867;SDS011;26586;50.708;22.412;2023-04-28T12:17:36;0.55;;;0.32;;
40867;SDS011;26586;50.708;22.412;2023-04-28T12:20:11;0.45;;;0.30;;
40867;SDS011;26586;50.708;22.412;2023-04-28T12:23:04;0.10;;;0.10;;
40867;SDS011;26586;50.708;22.412;2023-04-28T12:25:31;0.10;;;0.10;;
40867;SDS011;26586;50.708;22.412;2023-04-28T12:28:08;0.00;;;0.00;;
40867;SDS011;26586;50.708;22.412;2023-04-28T12:33:23;0.00;;;0.00;;
40867;SDS011;26586;50.708;22.412;2023-04-28T12:35:59;2.42;;;1.55;;
40867;SDS011;26586;50.708;22.412;2023-04-28T12:38:29;0.10;;;0.10;;
40867;SDS011;26586;50.708;22.412;2023-04-28T12:40:57;1.30;;;0.47;;
40867;SDS011;26586;50.708;22.412;2023-04-28T12:43:23;0.30;;;0.20;;
40867;SDS011;26586;50.708;22.412;2023-04-28T12:45:52;0.38;;;0.38;;
40867;SDS011;26586;50.708;22.412;2023-04-28T12:48:20;0.93;;;0.43;;
40867;SDS011;26586;50.708;22.412;2023-04-28T12:50:50;0.25;;;0.25;;
40867;SDS011;26586;50.708;22.412;2023-04-28T12:53:17;0.20;;;0.20;;
40867;SDS011;26586;50.708;22.412;2023-04-28T12:55:44;0.10;;;0.10;;
40867;SDS011;26586;50.708;22.412;2023-04-28T12:58:10;0.20;;;0.00;;
40867;SDS011;26586;50.708;22.412;2023-04-28T13:00:39;0.38;;;0.30;;
40867;SDS011;26586;50.708;22.412;2023-04-28T13:03:15;0.10;;;0.10;;
40867;SDS011;26586;50.708;22.412;2023-04-28T13:05:48;0.00;;;0.00;;
40867;SDS011;26586;50.708;22.412;2023-04-28T13:08:17;0.10;;;0.10;;
40867;SDS011;26586;50.708;22.412;2023-04-28T13:10:56;1.05;;;0.30;;
40867;SDS011;26586;50.708;22.412;2023-04-28T13:13:26;0.10;;;0.10;;
40867;SDS011;26586;50.708;22.412;2023-04-28T13:16:09;0.05;;;0.05;;
40867;SDS011;26586;50.708;22.412;2023-04-28T13:18:43;0.30;;;0.10;;
40867;SDS011;26586;50.708;22.412;2023-04-28T13:21:26;0.75;;;0.32;;
40867;SDS011;26586;50.708;22.412;2023-04-28T13:23:53;0.90;;;0.63;;
40867;SDS011;26586;50.708;22.412;2023-04-28T13:26:35;0.20;;;0.20;;
40867;SDS011;26586;50.708;22.412;2023-04-28T13:29:06;0.32;;;0.20;;
40867;SDS011;26586;50.708;22.412;2023-04-28T13:31:40;0.32;;;0.20;;
40867;SDS011;26586;50.708;22.412;2023-04-28T13:34:07;2.33;;;0.98;;
40867;SDS011;26586;50.708;22.412;2023-04-28T13:36:46;0.28;;;0.15;;
40867;SDS011;26586;50.708;22.412;2023-04-28T13:39:20;0.75;;;0.57;;
40867;SDS011;26586;50.708;22.412;2023-04-28T13:41:48;0.20;;;0.20;;
40867;SDS011;26586;50.708;22.412;2023-04-28T13:44:18;1.33;;;0.98;;
40867;SDS011;26586;50.708;22.412;2023-04-28T13:46:44;0.20;;;0.08;;
40867;SDS011;26586;50.708;22.412;2023-04-28T13:49:11;0.00;;;0.00;;
40867;SDS011;26586;50.708;22.412;2023-04-28T13:51:37;0.10;;;0.10;;
40867;SDS011;26586;50.708;22.412;2023-04-28T13:54:04;0.00;;;0.00;;
40867;SDS011;26586;50.708;22.412;2023-04-28T13:56:34;0.10;;;0.10;;
40867;SDS011;26586;50.708;22.412;2023-04-28T13:59:01;0.00;;;0.00;;
40867;SDS011;26586;50.708;22.412;2023-04-28T14:01:28;0.43;;;0.20;;
40867;SDS011;26586;50.708;22.412;2023-04-28T14:03:54;0.15;;;0.15;;
40867;SDS011;26586;50.708;22.412;2023-04-28T14:06:21;0.55;;;0.55;;
40867;SDS011;26586;50.708;22.412;2023-04-28T14:08:47;0.10;;;0.10;;
40867;SDS011;26586;50.708;22.412;2023-04-28T14:11:14;0.20;;;0.20;;
40867;SDS011;26586;50.708;22.412;2023-04-28T14:16:07;0.00;;;0.00;;
40867;SDS011;26586;50.708;22.412;2023-04-28T14:18:33;0.50;;;0.28;;
40867;SDS011;26586;50.708;22.412;2023-04-28T14:23:28;0.00;;;0.00;;
40867;SDS011;26586;50.708;22.412;2023-04-28T14:25:55;0.15;;;0.10;;
40867;SDS011;26586;50.708;22.412;2023-04-28T14:28:25;0.63;;;0.40;;
40867;SDS011;26586;50.708;22.412;2023-04-28T14:30:52;0.73;;;0.57;;
40867;SDS011;26586;50.708;22.412;2023-04-28T14:33:19;0.50;;;0.30;;
40867;SDS011;26586;50.708;22.412;2023-04-28T14:35:45;0.10;;;0.10;;
40867;SDS011;26586;50.708;22.412;2023-04-28T14:38:12;0.20;;;0.17;;
40867;SDS011;26586;50.708;22.412;2023-04-28T14:40:40;0.00;;;0.00;;
40867;SDS011;26586;50.708;22.412;2023-04-28T14:43:09;0.20;;;0.10;;
40867;SDS011;26586;50.708;22.412;2023-04-28T14:45:35;0.10;;;0.10;;
40867;SDS011;26586;50.708;22.412;2023-04-28T14:48:06;0.00;;;0.00;;
40867;SDS011;26586;50.708;22.412;2023-04-28T14:50:36;0.20;;;0.20;;
40867;SDS011;26586;50.708;22.412;2023-04-28T14:53:03;2.05;;;0.45;;
40867;SDS011;26586;50.708;22.412;2023-04-28T14:55:32;0.13;;;0.13;;
40867;SDS011;26586;50.708;22.412;2023-04-28T14:57:59;0.20;;;0.13;;
40867;SDS011;26586;50.708;22.412;2023-04-28T15:00:29;0.20;;;0.10;;
40867;SDS011;26586;50.708;22.412;2023-04-28T15:02:55;1.50;;;0.63;;
40867;SDS011;26586;50.708;22.412;2023-04-28T15:05:22;0.52;;;0.38;;
40867;SDS011;26586;50.708;22.412;2023-04-28T15:07:48;0.10;;;0.10;;
40867;SDS011;26586;50.708;22.412;2023-04-28T15:10:18;0.25;;;0.10;;
40867;SDS011;26586;50.708;22.412;2023-04-28T15:12:48;0.82;;;0.17;;
40867;SDS011;26586;50.708;22.412;2023-04-28T15:17:41;0.10;;;0.10;;
40867;SDS011;26586;50.708;22.412;2023-04-28T15:20:07;0.00;;;0.00;;
40867;SDS011;26586;50.708;22.412;2023-04-28T15:22:34;0.22;;;0.22;;
40867;SDS011;26586;50.708;22.412;2023-04-28T15:25:01;0.20;;;0.20;;
40867;SDS011;26586;50.708;22.412;2023-04-28T15:27:30;0.20;;;0.20;;
40867;SDS011;26586;50.708;22.412;2023-04-28T15:32:23;0.30;;;0.30;;
40867;SDS011;26586;50.708;22.412;2023-04-28T15:34:51;0.20;;;0.20;;